Time;durP1;ratioP1;P1;durP2;ratioP2;P2;SDS_P1;SDS_P2;PMS_P1;PMS_P2;Temp;Humidity;BMP_temperature;BMP_pressure;BME280_temperature;BME280_humidity;BME280_pressure;Samples;Min_cycle;Max_cycle;Signal;HPM_P1;HPM_P2
2024/04/04 00:02:57;;;;;;;4.90;1.08;;;10.30;99.90;;;;;;6195408;28;20047;-77
2024/04/04 00:05:58;;;;;;;4.97;1.25;;;10.30;99.90;;;;;;6195516;28;20061;-77
2024/04/04 00:08:59;;;;;;;2.80;0.60;;;10.30;99.90;;;;;;6194694;28;20491;-77
2024/04/04 00:12:00;;;;;;;2.67;0.60;;;10.30;99.90;;;;;;6194733;28;20073;-78
2024/04/04 00:15:00;;;;;;;2.20;0.70;;;10.30;99.90;;;;;;6184708;28;20054;-80
2024/04/04 00:18:01;;;;;;;1.55;0.45;;;10.40;99.90;;;;;;6194219;28;20054;-80
2024/04/04 00:21:02;;;;;;;1.25;0.50;;;10.40;99.90;;;;;;6178320;28;20058;-78
2024/04/04 00:24:03;;;;;;;1.00;0.40;;;10.50;99.90;;;;;;6194338;28;20510;-78
2024/04/04 00:27:03;;;;;;;1.58;0.50;;;10.50;99.90;;;;;;6194520;28;20061;-80
2024/04/04 00:30:04;;;;;;;0.77;0.40;;;10.40;99.90;;;;;;6188922;28;20057;-78
2024/04/04 00:33:05;;;;;;;1.48;0.50;;;10.40;99.90;;;;;;6194709;28;20054;-79
2024/04/04 00:36:05;;;;;;;3.45;0.50;;;10.40;99.90;;;;;;6194341;28;20430;-78
2024/04/04 00:39:06;;;;;;;1.70;0.50;;;10.40;99.90;;;;;;6194455;28;20058;-78
2024/04/04 00:42:07;;;;;;;0.93;0.50;;;10.40;99.90;;;;;;6178278;28;20058;-78
2024/04/04 00:45:07;;;;;;;2.30;0.55;;;10.40;99.90;;;;;;6175016;28;20433;-79
2024/04/04 00:48:08;;;;;;;1.73;0.65;;;10.50;99.90;;;;;;6195820;28;20521;-79
2024/04/04 00:51:09;;;;;;;2.20;0.50;;;10.50;99.90;;;;;;6194182;28;20417;-79
2024/04/04 00:54:10;;;;;;;1.50;0.50;;;10.60;99.90;;;;;;6192546;28;20538;-79
2024/04/04 00:57:10;;;;;;;2.13;0.47;;;10.60;99.90;;;;;;6178002;28;20065;-79
2024/04/04 01:00:13;;;;;;;2.03;0.60;;;10.70;99.90;;;;;;6167468;28;20058;-79
2024/04/04 01:03:13;;;;;;;1.45;0.50;;;10.70;99.90;;;;;;6193447;28;20058;-79
2024/04/04 01:06:14;;;;;;;2.72;0.55;;;10.80;99.90;;;;;;6193218;28;20162;-78
2024/04/04 01:09:14;;;;;;;1.65;0.60;;;10.90;99.90;;;;;;6177260;28;20066;-79
2024/04/04 01:12:15;;;;;;;2.05;0.60;;;10.90;99.90;;;;;;6193370;28;20058;-78
2024/04/04 01:15:16;;;;;;;2.20;0.60;;;11.00;99.90;;;;;;6167039;28;20640;-79
2024/04/04 01:18:16;;;;;;;2.10;0.70;;;11.00;99.90;;;;;;6193606;28;20057;-79
2024/04/04 01:21:18;;;;;;;1.80;0.60;;;11.10;99.90;;;;;;6177183;28;20072;-79
2024/04/04 01:24:19;;;;;;;2.45;0.63;;;11.20;99.90;;;;;;6193395;28;20068;-79
2024/04/04 01:27:19;;;;;;;1.40;0.60;;;11.30;99.90;;;;;;6193358;28;20046;-79
2024/04/04 01:30:20;;;;;;;3.47;0.70;;;11.40;99.90;;;;;;6187876;28;20061;-79
2024/04/04 01:33:21;;;;;;;1.45;0.68;;;11.40;99.90;;;;;;6193596;28;20056;-78
2024/04/04 01:36:22;;;;;;;3.08;0.80;;;11.50;99.90;;;;;;6177170;28;20050;-79
2024/04/04 01:39:22;;;;;;;2.13;0.70;;;11.50;99.90;;;;;;6193397;28;20092;-78
2024/04/04 01:42:23;;;;;;;1.92;0.60;;;11.60;99.90;;;;;;6176956;28;20062;-78
2024/04/04 01:45:24;;;;;;;2.95;0.70;;;11.60;99.90;;;;;;6177763;28;20158;-79
2024/04/04 01:48:24;;;;;;;2.25;0.65;;;11.70;99.90;;;;;;6176900;28;20066;-79
2024/04/04 01:51:25;;;;;;;2.08;0.60;;;11.70;99.90;;;;;;6192907;28;20473;-78
2024/04/04 01:54:26;;;;;;;2.10;0.70;;;11.80;99.90;;;;;;6190920;28;20054;-79
2024/04/04 01:57:26;;;;;;;1.63;0.60;;;11.80;99.90;;;;;;6193577;28;20057;-79
2024/04/04 02:00:27;;;;;;;1.48;0.60;;;11.90;99.90;;;;;;6185969;28;20062;-79
2024/04/04 02:03:27;;;;;;;1.92;0.50;;;11.90;99.90;;;;;;6193140;28;20073;-78
2024/04/04 02:06:28;;;;;;;2.85;0.60;;;12.00;99.90;;;;;;6190740;28;20146;-78
2024/04/04 02:09:29;;;;;;;2.05;0.60;;;12.00;99.90;;;;;;6192980;28;20057;-79
2024/04/04 02:12:29;;;;;;;2.17;0.70;;;12.00;99.90;;;;;;6192778;28;20058;-78
2024/04/04 02:15:30;;;;;;;3.28;0.90;;;12.10;99.90;;;;;;6187832;28;20414;-79
2024/04/04 02:18:31;;;;;;;2.72;0.70;;;12.10;99.90;;;;;;6197421;28;20136;-79
2024/04/04 02:21:31;;;;;;;2.97;0.80;;;12.10;99.90;;;;;;6197232;28;20418;-78
2024/04/04 02:24:32;;;;;;;2.95;0.80;;;12.10;99.90;;;;;;6197441;28;20053;-80
2024/04/04 02:27:33;;;;;;;2.28;0.68;;;12.10;99.90;;;;;;6197373;28;20065;-79
2024/04/04 02:30:34;;;;;;;3.55;0.80;;;12.20;99.90;;;;;;6191950;28;20058;-79
2024/04/04 02:33:35;;;;;;;2.83;0.80;;;12.20;99.90;;;;;;6197249;28;20054;-79
2024/04/04 02:36:36;;;;;;;4.65;1.02;;;12.20;99.90;;;;;;6196958;28;20116;-79
2024/04/04 02:39:37;;;;;;;2.63;0.90;;;12.20;99.90;;;;;;6180857;28;20054;-79
2024/04/04 02:42:38;;;;;;;5.05;1.15;;;12.20;99.90;;;;;;6196986;28;20064;-79
2024/04/04 02:45:39;;;;;;;4.82;1.42;;;12.20;99.90;;;;;;6186395;28;20100;-78
2024/04/04 02:48:41;;;;;;;5.28;1.50;;;12.20;99.90;;;;;;6196817;28;20453;-78
2024/04/04 02:51:42;;;;;;;4.72;1.35;;;12.20;99.90;;;;;;6196645;28;20528;-78
2024/04/04 02:54:42;;;;;;;4.30;1.63;;;12.20;99.90;;;;;;6197082;28;20050;-77
2024/04/04 02:57:43;;;;;;;5.10;1.77;;;12.30;99.90;;;;;;6180664;28;20680;-77
2024/04/04 03:00:44;;;;;;;5.32;1.50;;;12.20;99.90;;;;;;6191550;28;20068;-78
2024/04/04 03:03:44;;;;;;;5.32;1.70;;;12.20;99.90;;;;;;6196440;28;20089;-78
2024/04/04 03:06:45;;;;;;;6.75;1.50;;;12.20;99.90;;;;;;6194480;28;20062;-77
2024/04/04 03:09:46;;;;;;;7.68;1.77;;;12.20;99.90;;;;;;6196684;28;20062;-77
2024/04/04 03:12:49;;;;;;;10.10;2.20;;;12.20;99.90;;;;;;6196021;28;20609;-78
2024/04/04 03:15:50;;;;;;;11.85;2.30;;;12.30;99.90;;;;;;6185705;28;20057;-79
2024/04/04 03:18:51;;;;;;;10.07;2.97;;;12.30;99.90;;;;;;6196166;28;20069;-79
2024/04/04 03:21:51;;;;;;;17.27;3.45;;;12.30;99.90;;;;;;6196263;28;20054;-79
2024/04/04 03:24:52;;;;;;;17.08;3.30;;;12.40;99.90;;;;;;6195790;28;20508;-79
2024/04/04 03:27:52;;;;;;;21.35;3.85;;;12.40;99.90;;;;;;6179554;28;20062;-79
2024/04/04 03:30:53;;;;;;;18.13;4.20;;;12.50;99.90;;;;;;6190628;28;20065;-79
2024/04/04 03:33:54;;;;;;;19.38;4.22;;;12.40;99.90;;;;;;6172636;28;20063;-80
2024/04/04 03:36:54;;;;;;;18.67;4.70;;;12.40;99.90;;;;;;6195219;28;20062;-79
2024/04/04 03:39:55;;;;;;;19.92;4.18;;;12.30;99.90;;;;;;6195623;28;20056;-79
2024/04/04 03:42:56;;;;;;;17.92;4.05;;;12.30;99.90;;;;;;6195753;28;20054;-80
2024/04/04 03:45:56;;;;;;;26.88;4.85;;;12.30;99.90;;;;;;6182936;28;20070;-80
2024/04/04 03:48:57;;;;;;;20.25;4.68;;;12.30;99.90;;;;;;6195358;28;20429;-80
2024/04/04 03:51:58;;;;;;;23.85;5.63;;;12.20;99.90;;;;;;6195398;28;20058;-80
2024/04/04 03:55:00;;;;;;;20.88;4.43;;;12.30;99.90;;;;;;6195777;28;20054;-79
2024/04/04 03:58:00;;;;;;;23.50;4.72;;;12.30;99.90;;;;;;6194685;28;20430;-78
2024/04/04 04:01:02;;;;;;;26.33;4.75;;;12.20;99.90;;;;;;6187733;28;20054;-80
2024/04/04 04:04:02;;;;;;;26.27;4.50;;;12.20;99.90;;;;;;6194879;28;20120;-81
2024/04/04 04:07:03;;;;;;;21.02;4.25;;;12.20;99.90;;;;;;6189385;28;20049;-80
2024/04/04 04:10:04;;;;;;;31.92;5.10;;;12.30;99.90;;;;;;6195045;28;20736;-77
2024/04/04 04:13:05;;;;;;;36.42;5.55;;;12.30;99.90;;;;;;6193609;28;20058;-80
2024/04/04 04:16:08;;;;;;;27.92;4.47;;;12.20;99.90;;;;;;6168772;28;20113;-82
2024/04/04 04:19:08;;;;;;;28.92;4.60;;;12.00;99.90;;;;;;6171370;28;20112;-82
2024/04/04 04:22:09;;;;;;;25.25;4.22;;;11.90;99.90;;;;;;6186995;28;20503;-82
2024/04/04 04:25:10;;;;;;;18.30;3.50;;;11.80;99.90;;;;;;6194447;28;20065;-81
2024/04/04 04:28:10;;;;;;;20.40;3.40;;;11.70;99.90;;;;;;6182382;28;20629;-83
2024/04/04 04:31:11;;;;;;;23.95;4.55;;;11.60;99.90;;;;;;6184880;28;20058;-81
2024/04/04 04:34:12;;;;;;;21.73;3.67;;;11.60;99.90;;;;;;6166455;28;20042;-82
2024/04/04 04:37:12;;;;;;;24.05;4.05;;;11.60;99.90;;;;;;6194050;28;20112;-81
2024/04/04 04:40:13;;;;;;;23.85;4.63;;;11.60;99.90;;;;;;6177832;28;20053;-83
2024/04/04 04:43:14;;;;;;;22.33;4.03;;;11.60;99.90;;;;;;6178185;28;20049;-82
2024/04/04 04:46:14;;;;;;;24.67;4.22;;;11.60;99.90;;;;;;6185129;28;20066;-83
2024/04/04 04:49:15;;;;;;;21.98;3.42;;;11.50;99.90;;;;;;6177035;28;20058;-82
2024/04/04 04:52:17;;;;;;;18.35;2.85;;;11.40;99.90;;;;;;6179438;28;20054;-82
2024/04/04 04:55:17;;;;;;;19.70;3.15;;;11.40;99.90;;;;;;6178454;28;20615;-82
2024/04/04 04:58:23;;;;;;;15.90;3.28;;;11.30;99.90;;;;;;6187528;28;20411;-82
2024/04/04 05:01:24;;;;;;;9.95;2.42;;;11.20;99.90;;;;;;6178685;28;20054;-82
2024/04/04 05:04:25;;;;;;;15.88;2.58;;;11.20;99.90;;;;;;6194317;28;20058;-83
2024/04/04 05:07:25;;;;;;;10.93;2.20;;;11.20;99.90;;;;;;6178728;28;20058;-82
2024/04/04 05:10:29;;;;;;;12.57;2.10;;;11.20;99.90;;;;;;6178483;28;20540;-83
2024/04/04 05:13:30;;;;;;;13.57;2.35;;;11.20;99.90;;;;;;6178062;28;20422;-85
2024/04/04 05:16:30;;;;;;;8.40;1.88;;;11.10;99.90;;;;;;6195360;28;20054;-85
2024/04/04 05:19:31;;;;;;;7.18;1.80;;;11.00;99.90;;;;;;6155178;28;20054;-84
2024/04/04 05:22:32;;;;;;;10.52;1.83;;;10.90;99.90;;;;;;6195202;28;20062;-85
2024/04/04 05:25:33;;;;;;;8.20;1.60;;;10.90;99.90;;;;;;6177830;28;20058;-85
2024/04/04 05:28:36;;;;;;;9.63;1.85;;;10.80;99.90;;;;;;6172476;28;20050;-84
2024/04/04 05:31:37;;;;;;;10.63;2.10;;;10.80;99.90;;;;;;6177606;28;20803;-83
2024/04/04 05:34:40;;;;;;;8.40;1.60;;;10.70;99.90;;;;;;6194649;28;20050;-84
2024/04/04 05:37:41;;;;;;;10.88;1.83;;;10.70;99.90;;;;;;6194083;28;20058;-84
2024/04/04 05:40:42;;;;;;;8.55;1.30;;;10.70;99.90;;;;;;6177739;28;20058;-83
2024/04/04 05:43:42;;;;;;;10.88;2.17;;;10.70;99.90;;;;;;6172486;28;20054;-84
2024/04/04 05:46:43;;;;;;;12.30;1.90;;;10.60;99.90;;;;;;6194024;28;20573;-83
2024/04/04 05:49:44;;;;;;;16.25;2.47;;;10.50;99.90;;;;;;6195800;28;20054;-83
2024/04/04 05:52:45;;;;;;;19.70;3.10;;;10.50;99.90;;;;;;6198523;28;20542;-82
2024/04/04 05:55:46;;;;;;;15.75;2.88;;;10.60;99.90;;;;;;6198351;28;20058;-83
2024/04/04 05:58:47;;;;;;;22.23;3.97;;;10.60;99.90;;;;;;6177042;28;20215;-83
2024/04/04 06:01:47;;;;;;;15.93;3.45;;;10.50;99.90;;;;;;6198809;28;20056;-82
2024/04/04 06:04:50;;;;;;;25.83;3.70;;;10.50;99.90;;;;;;6183686;28;20077;-84
2024/04/04 06:07:50;;;;;;;19.00;3.20;;;10.50;99.90;;;;;;6200252;28;20050;-84
2024/04/04 06:10:51;;;;;;;21.20;3.25;;;10.50;99.90;;;;;;6199968;28;20058;-83
2024/04/04 06:13:52;;;;;;;22.75;3.42;;;10.50;99.90;;;;;;6177473;28;20066;-83
2024/04/04 06:16:53;;;;;;;15.23;3.20;;;10.50;99.90;;;;;;6182196;28;20406;-82
2024/04/04 06:19:53;;;;;;;15.82;3.35;;;10.60;99.90;;;;;;6198229;28;20578;-82
2024/04/04 06:22:54;;;;;;;18.45;3.05;;;10.60;99.90;;;;;;6197654;28;20055;-83
2024/04/04 06:25:54;;;;;;;18.50;3.22;;;10.70;99.90;;;;;;6179874;28;20062;-82
2024/04/04 06:28:55;;;;;;;16.38;2.78;;;10.70;99.90;;;;;;6197151;28;20109;-82
2024/04/04 06:31:57;;;;;;;17.55;2.97;;;10.80;99.90;;;;;;6197420;28;20060;-82
2024/04/04 06:34:58;;;;;;;15.68;3.45;;;10.70;99.90;;;;;;6180985;28;20073;-82
2024/04/04 06:37:58;;;;;;;16.00;2.53;;;10.80;99.90;;;;;;6181880;28;20066;-82
2024/04/04 06:40:59;;;;;;;13.07;2.55;;;10.70;99.90;;;;;;6181571;28;20058;-83
2024/04/04 06:44:00;;;;;;;20.48;2.97;;;10.70;99.90;;;;;;6179744;28;20399;-83
2024/04/04 06:47:00;;;;;;;15.68;2.40;;;10.70;99.90;;;;;;6197440;28;20054;-83
2024/04/04 06:50:01;;;;;;;13.35;2.35;;;10.70;99.90;;;;;;6181217;28;20136;-82
2024/04/04 06:53:02;;;;;;;17.23;2.55;;;10.70;99.90;;;;;;6197100;28;20065;-83
2024/04/04 06:56:02;;;;;;;11.70;2.22;;;10.60;99.90;;;;;;6180580;28;20177;-82
2024/04/04 06:59:03;;;;;;;14.82;2.17;;;10.60;99.90;;;;;;6178600;28;20062;-82
2024/04/04 07:02:04;;;;;;;11.48;2.38;;;11.00;99.90;;;;;;6196333;28;20073;-82
2024/04/04 07:05:05;;;;;;;7.90;1.95;;;11.30;99.90;;;;;;6196791;28;20058;-83
2024/04/04 07:08:08;;;;;;;16.42;2.17;;;11.70;99.90;;;;;;6196624;28;20064;-83
2024/04/04 07:11:09;;;;;;;5.93;1.55;;;12.10;99.90;;;;;;6196685;28;20058;-83
2024/04/04 07:14:11;;;;;;;8.38;1.42;;;12.70;99.90;;;;;;6166597;28;20054;-82
2024/04/04 07:17:12;;;;;;;10.90;1.50;;;12.70;94.20;;;;;;6180553;28;20050;-81
2024/04/04 07:20:13;;;;;;;7.40;1.38;;;12.80;91.20;;;;;;6196869;28;20501;-85
2024/04/04 07:23:13;;;;;;;7.68;1.30;;;12.70;88.70;;;;;;6196920;28;20051;-81
2024/04/04 07:26:15;;;;;;;6.25;1.33;;;13.30;84.20;;;;;;6194971;28;20136;-84
2024/04/04 07:29:15;;;;;;;5.90;1.05;;;13.60;90.70;;;;;;6158398;28;20061;-80
2024/04/04 07:32:16;;;;;;;8.05;1.30;;;13.90;59.00;;;;;;6179163;28;20058;-80
2024/04/04 07:35:17;;;;;;;6.35;1.45;;;14.10;54.60;;;;;;6179132;28;20062;-80
2024/04/04 07:38:17;;;;;;;5.82;1.30;;;14.80;51.90;;;;;;6179305;28;20062;-81
2024/04/04 07:41:18;;;;;;;7.72;1.40;;;14.60;23.10;;;;;;6196195;28;20062;-80
2024/04/04 07:44:19;;;;;;;10.02;1.27;;;14.40;49.00;;;;;;6189971;28;20054;-81
2024/04/04 07:47:19;;;;;;;12.95;2.00;;;14.50;49.10;;;;;;6179688;28;20066;-82
2024/04/04 07:50:20;;;;;;;11.10;1.80;;;14.50;38.50;;;;;;6195276;28;20050;-81
2024/04/04 07:53:21;;;;;;;9.00;1.70;;;14.60;28.50;;;;;;6178148;28;20674;-80
2024/04/04 07:56:21;;;;;;;8.88;1.58;;;14.60;28.00;;;;;;6176680;28;20054;-80
2024/04/04 07:59:22;;;;;;;6.57;1.40;;;14.90;23.20;;;;;;6185401;28;20058;-80
2024/04/04 08:02:25;;;;;;;9.00;1.80;;;15.60;9.10;;;;;;6184714;28;20787;-80
2024/04/04 08:05:25;;;;;;;9.82;2.00;;;15.80;1.00;;;;;;6195399;28;20062;-83
2024/04/04 08:08:26;;;;;;;10.48;1.80;;;16.00;1.00;;;;;;6179080;28;20050;-79
2024/04/04 08:11:27;;;;;;;10.52;1.63;;;16.20;1.00;;;;;;6178413;28;20454;-81
2024/04/04 08:14:30;;;;;;;7.55;1.13;;;15.80;1.00;;;;;;6183809;28;20490;-80
2024/04/04 08:17:30;;;;;;;7.72;1.52;;;15.80;1.00;;;;;;6194030;28;20054;-82
2024/04/04 08:20:31;;;;;;;7.70;1.30;;;15.80;1.00;;;;;;6177887;28;20061;-81
2024/04/04 08:23:31;;;;;;;7.15;1.20;;;16.40;1.00;;;;;;6177725;28;20059;-82
2024/04/04 08:26:32;;;;;;;10.50;1.40;;;16.60;1.00;;;;;;6177969;28;20050;-81
2024/04/04 08:29:33;;;;;;;7.32;1.60;;;16.40;1.00;;;;;;6180946;28;20068;-81
2024/04/04 08:32:34;;;;;;;11.57;1.45;;;16.40;1.00;;;;;;6193649;28;20062;-81
2024/04/04 08:35:35;;;;;;;7.65;1.50;;;16.10;1.00;;;;;;6193486;28;20436;-81
2024/04/04 08:38:35;;;;;;;10.45;1.52;;;15.80;1.00;;;;;;6177937;28;20073;-81
2024/04/04 08:41:36;;;;;;;7.38;1.73;;;15.60;1.00;;;;;;6178618;28;20054;-79
2024/04/04 08:44:36;;;;;;;10.55;2.40;;;15.40;1.00;;;;;;6175378;28;20066;-80
2024/04/04 08:47:37;;;;;;;10.73;2.25;;;15.60;1.00;;;;;;6194270;28;20054;-82
2024/04/04 08:50:38;;;;;;;12.52;2.47;;;15.20;1.00;;;;;;6194053;28;20482;-81
2024/04/04 08:53:39;;;;;;;12.68;2.30;;;14.90;1.00;;;;;;6153795;28;20121;-84
2024/04/04 08:56:40;;;;;;;10.27;2.13;;;14.90;12.30;;;;;;6178143;28;20494;-81
2024/04/04 08:59:41;;;;;;;14.52;2.22;;;14.50;5.00;;;;;;6163397;28;20057;-80
2024/04/04 09:02:41;;;;;;;12.70;2.40;;;14.50;26.20;;;;;;6177513;28;20055;-80
2024/04/04 09:05:42;;;;;;;12.57;2.88;;;14.20;33.20;;;;;;6169370;28;20059;-80
2024/04/04 09:08:43;;;;;;;11.88;2.40;;;14.00;38.20;;;;;;6169465;28;20050;-80
2024/04/04 09:11:43;;;;;;;13.55;2.53;;;13.80;58.60;;;;;;6191931;28;20058;-81
2024/04/04 09:14:44;;;;;;;12.43;2.30;;;13.60;75.00;;;;;;6158809;28;20054;-81
2024/04/04 09:17:46;;;;;;;17.73;2.70;;;13.50;82.60;;;;;;6169548;28;20137;-81
2024/04/04 09:20:47;;;;;;;9.93;2.25;;;13.40;87.80;;;;;;6178387;28;20054;-81
2024/04/04 09:23:47;;;;;;;11.35;2.30;;;13.30;82.00;;;;;;6168863;28;20141;-83
2024/04/04 09:26:48;;;;;;;13.80;2.50;;;13.40;84.10;;;;;;6153658;28;20050;-79
2024/04/04 09:29:48;;;;;;;9.93;2.10;;;13.40;84.50;;;;;;6164551;28;20061;-80
2024/04/04 09:32:49;;;;;;;11.15;2.03;;;13.90;75.10;;;;;;6177218;28;20062;-80
2024/04/04 09:35:51;;;;;;;10.70;2.50;;;14.20;67.70;;;;;;6193113;28;20426;-79
2024/04/04 09:38:52;;;;;;;15.25;2.00;;;14.10;54.60;;;;;;6193235;28;20060;-79
2024/04/04 09:41:53;;;;;;;16.92;2.13;;;14.00;50.30;;;;;;6177114;28;20054;-80
2024/04/04 09:44:54;;;;;;;10.18;2.20;;;13.80;52.70;;;;;;6178930;28;20066;-78
2024/04/04 09:47:55;;;;;;;12.38;2.30;;;13.80;57.50;;;;;;6176255;28;20430;-80
2024/04/04 09:50:56;;;;;;;8.82;1.88;;;13.80;64.10;;;;;;6192632;28;20142;-81
2024/04/04 09:53:57;;;;;;;10.35;2.00;;;13.90;43.40;;;;;;6174465;28;20497;-78
2024/04/04 09:56:58;;;;;;;7.75;1.70;;;14.10;44.90;;;;;;6192648;28;20058;-79
2024/04/04 09:59:59;;;;;;;8.48;1.70;;;14.10;27.30;;;;;;6185921;28;20196;-79
2024/04/04 10:03:00;;;;;;;12.25;2.30;;;13.90;54.20;;;;;;6192889;28;20522;-78
2024/04/04 10:06:01;;;;;;;8.65;1.60;;;13.80;57.00;;;;;;6191894;28;20109;-78
2024/04/04 10:09:02;;;;;;;8.55;1.83;;;13.80;54.20;;;;;;6192254;28;20129;-79
2024/04/04 10:12:03;;;;;;;7.63;1.95;;;14.10;54.60;;;;;;6192941;28;20065;-81
2024/04/04 10:15:04;;;;;;;8.35;1.70;;;14.50;9.80;;;;;;6171594;28;20556;-82
2024/04/04 10:18:05;;;;;;;6.57;1.42;;;15.30;13.40;;;;;;6176245;28;20425;-80
2024/04/04 10:21:10;;;;;;;10.95;1.90;;;15.50;1.00;;;;;;6176682;28;20152;-79
2024/04/04 10:24:11;;;;;;;5.97;1.60;;;15.60;1.00;;;;;;6176773;28;20062;-81
2024/04/04 10:27:12;;;;;;;6.93;1.77;;;15.50;1.00;;;;;;6176669;28;20537;-79
2024/04/04 10:30:12;;;;;;;8.63;1.67;;;15.20;1.00;;;;;;6188302;28;20069;-80
2024/04/04 10:33:13;;;;;;;8.70;1.85;;;15.30;1.00;;;;;;6170563;28;20058;-81
2024/04/04 10:36:14;;;;;;;7.63;1.55;;;15.10;1.00;;;;;;6193044;28;20062;-82
2024/04/04 10:39:16;;;;;;;9.40;1.40;;;15.10;1.00;;;;;;6181806;28;20725;-82
2024/04/04 10:42:17;;;;;;;6.47;1.33;;;15.20;1.00;;;;;;6181107;28;20058;-83
2024/04/04 10:45:18;;;;;;;5.60;1.40;;;15.60;1.00;;;;;;6191639;28;20152;-83
2024/04/04 10:48:19;;;;;;;4.15;1.13;;;15.60;1.00;;;;;;6197451;28;20189;-84
2024/04/04 10:51:20;;;;;;;7.32;1.60;;;15.60;1.00;;;;;;6181482;28;20465;-82
2024/04/04 10:54:21;;;;;;;6.22;1.27;;;15.80;1.00;;;;;;6179633;28;20065;-83
2024/04/04 10:57:23;;;;;;;5.22;1.25;;;15.80;1.00;;;;;;6181400;28;20136;-80
2024/04/04 11:00:24;;;;;;;3.72;0.98;;;15.90;1.00;;;;;;6170698;28;20085;-82
2024/04/04 11:03:25;;;;;;;4.07;1.00;;;16.80;1.00;;;;;;6197219;28;20066;-82
2024/04/04 11:06:25;;;;;;;6.32;1.02;;;16.70;1.00;;;;;;6180701;28;20054;-81
2024/04/04 11:09:26;;;;;;;4.90;1.13;;;17.20;1.00;;;;;;6180163;28;20050;-82
2024/04/04 11:12:26;;;;;;;3.17;0.80;;;17.90;1.00;;;;;;6180360;28;20085;-82
2024/04/04 11:15:27;;;;;;;4.28;1.10;;;19.00;1.00;;;;;;6161965;28;20108;-82
2024/04/04 11:18:28;;;;;;;3.20;0.90;;;19.50;1.00;;;;;;6179483;28;20057;-82
2024/04/04 11:21:28;;;;;;;4.80;1.10;;;20.20;1.00;;;;;;6180344;28;20129;-83
2024/04/04 11:24:29;;;;;;;4.10;0.80;;;20.80;1.00;;;;;;6180079;28;20097;-82
2024/04/04 11:27:30;;;;;;;3.55;1.00;;;20.30;1.00;;;;;;6196481;28;20054;-80
2024/04/04 11:30:30;;;;;;;4.03;0.80;;;20.20;1.00;;;;;;6182286;28;20062;-82
2024/04/04 11:33:31;;;;;;;5.80;1.05;;;20.70;1.00;;;;;;6195870;28;20395;-81
2024/04/04 11:36:32;;;;;;;4.50;1.00;;;21.00;1.00;;;;;;6180492;28;20065;-83
2024/04/04 11:39:34;;;;;;;4.28;1.00;;;20.30;1.00;;;;;;6181558;28;20070;-82
2024/04/04 11:42:38;;;;;;;5.20;1.00;;;19.80;1.00;;;;;;6181494;28;20069;-83
2024/04/04 11:45:39;;;;;;;5.57;1.23;;;19.30;1.00;;;;;;6178638;28;20054;-83
2024/04/04 11:48:40;;;;;;;4.20;1.10;;;18.70;1.00;;;;;;6180455;28;20431;-83
2024/04/04 11:51:40;;;;;;;3.05;1.00;;;18.30;1.00;;;;;;6196135;28;20058;-83
2024/04/04 11:54:41;;;;;;;9.15;1.48;;;18.30;1.00;;;;;;6177662;28;20058;-81
2024/04/04 11:57:41;;;;;;;4.15;1.08;;;18.10;1.00;;;;;;6179655;28;20510;-82
2024/04/04 12:00:42;;;;;;;6.35;1.23;;;17.90;1.00;;;;;;6161004;28;20544;-83
2024/04/04 12:03:43;;;;;;;7.45;1.30;;;17.60;1.00;;;;;;6179383;28;20141;-84
2024/04/04 12:06:43;;;;;;;6.10;1.10;;;18.20;1.00;;;;;;6178699;28;20109;-82
2024/04/04 12:09:44;;;;;;;6.28;1.48;;;18.80;1.00;;;;;;6195452;28;20065;-83
2024/04/04 12:12:45;;;;;;;5.43;1.15;;;19.80;1.00;;;;;;6194677;28;20069;-84
2024/04/04 12:15:49;;;;;;;5.40;1.10;;;19.70;1.00;;;;;;6194534;28;20441;-83
2024/04/04 12:22:09;;;;;;;3.85;1.10;;;19.90;1.00;;;;;;6194966;28;20112;-83
2024/04/04 12:28:22;;;;;;;5.68;1.48;;;18.20;1.00;;;;;;6228013;28;20114;-84
2024/04/04 12:31:23;;;;;;;8.02;1.65;;;17.80;1.00;;;;;;6205705;28;20441;-89
2024/04/04 12:34:23;;;;;;;6.68;1.60;;;17.70;1.00;;;;;;6181040;28;20062;-90
2024/04/04 12:37:24;;;;;;;5.13;1.40;;;18.20;1.00;;;;;;6220347;28;20050;-90
2024/04/04 12:40:24;;;;;;;8.00;1.67;;;18.90;1.00;;;;;;6221088;28;20061;-91
2024/04/04 12:43:25;;;;;;;9.48;1.90;;;18.80;1.00;;;;;;6214783;28;20079;-92
2024/04/04 12:46:28;;;;;;;10.65;2.15;;;19.00;1.00;;;;;;6209320;28;20544;-88
2024/04/04 12:49:29;;;;;;;7.85;1.58;;;19.20;1.00;;;;;;6204447;28;20066;-93
2024/04/04 12:52:30;;;;;;;7.22;1.80;;;19.50;1.00;;;;;;6183632;28;20055;-94
2024/04/04 12:55:30;;;;;;;9.18;2.17;;;19.50;1.00;;;;;;6224244;28;20422;-94
2024/04/04 12:58:31;;;;;;;8.00;1.67;;;19.60;1.00;;;;;;6202038;28;20108;-90
2024/04/04 13:01:32;;;;;;;9.15;1.77;;;20.90;1.00;;;;;;6220427;28;20413;-91
2024/04/04 13:04:33;;;;;;;6.70;1.90;;;21.70;1.00;;;;;;6199067;28;20066;-94
2024/04/04 13:07:34;;;;;;;12.68;2.25;;;20.90;1.00;;;;;;6206494;28;20058;-92
2024/04/04 13:10:35;;;;;;;11.40;2.70;;;20.50;1.00;;;;;;6212026;28;20080;-93
2024/04/04 13:13:36;;;;;;;8.90;2.08;;;20.50;1.00;;;;;;6201169;28;20062;-95
2024/04/04 13:16:37;;;;;;;7.80;1.55;;;19.90;1.00;;;;;;6222781;28;20135;-92
2024/04/04 13:19:38;;;;;;;7.72;1.98;;;19.60;1.00;;;;;;6208437;28;20129;-91
2024/04/04 13:22:38;;;;;;;9.27;1.80;;;20.30;1.00;;;;;;6230208;28;20049;-90
2024/04/04 13:25:40;;;;;;;8.77;1.90;;;21.30;1.00;;;;;;6203281;28;20599;-89
2024/04/04 13:28:40;;;;;;;8.85;1.23;;;20.80;1.00;;;;;;6199018;28;20054;-90
2024/04/04 13:31:41;;;;;;;8.10;1.58;;;20.10;1.00;;;;;;6221873;28;20058;-89
2024/04/04 13:34:42;;;;;;;5.88;1.20;;;19.50;1.00;;;;;;6222075;28;20458;-88
2024/04/04 13:37:43;;;;;;;7.07;1.80;;;18.80;1.00;;;;;;6203760;28;20058;-89
2024/04/04 13:40:45;;;;;;;9.13;2.05;;;18.10;1.00;;;;;;6220903;28;20413;-90
2024/04/04 13:43:45;;;;;;;6.40;1.73;;;18.50;1.00;;;;;;6206212;28;20046;-89
2024/04/04 13:46:46;;;;;;;12.02;2.53;;;19.10;1.00;;;;;;6221317;28;20145;-90
2024/04/04 13:49:47;;;;;;;10.45;2.30;;;18.80;1.00;;;;;;6205285;28;20050;-89
2024/04/04 13:52:48;;;;;;;11.75;2.58;;;18.40;1.00;;;;;;6222113;28;20141;-89
2024/04/04 13:55:49;;;;;;;11.75;2.70;;;18.00;1.00;;;;;;6205844;28;20113;-90
2024/04/04 13:58:50;;;;;;;10.23;2.35;;;18.10;1.00;;;;;;6193362;28;20061;-89
2024/04/04 14:01:51;;;;;;;12.95;2.88;;;17.80;1.00;;;;;;6205263;28;20068;-91
2024/04/04 14:04:52;;;;;;;12.77;3.00;;;17.20;1.00;;;;;;6221930;28;20413;-90
2024/04/04 14:07:52;;;;;;;15.40;3.80;;;16.80;1.00;;;;;;6205234;28;20533;-91
2024/04/04 14:10:53;;;;;;;18.08;3.55;;;16.40;15.40;;;;;;6208530;28;20133;-92
2024/04/04 14:13:54;;;;;;;22.50;4.95;;;15.90;69.70;;;;;;6208595;28;20061;-92
2024/04/04 14:16:55;;;;;;;27.42;5.15;;;15.90;87.30;;;;;;6208151;28;20490;-92
2024/04/04 14:19:56;;;;;;;26.48;5.47;;;16.10;86.40;;;;;;6226859;28;20064;-93
2024/04/04 14:22:57;;;;;;;30.65;5.88;;;16.20;68.20;;;;;;6230073;28;20093;-92
2024/04/04 14:25:58;;;;;;;31.67;5.18;;;16.20;69.00;;;;;;6215621;28;20049;-92
2024/04/04 14:29:00;;;;;;;30.88;5.70;;;16.30;42.70;;;;;;6202252;28;20691;-85
2024/04/04 14:32:01;;;;;;;27.33;5.30;;;16.20;37.20;;;;;;6214131;28;20080;-92
2024/04/04 14:35:02;;;;;;;22.80;4.80;;;16.50;40.70;;;;;;6232434;28;20132;-91
2024/04/04 14:38:03;;;;;;;27.40;5.18;;;16.60;22.30;;;;;;6206584;28;20133;-90
2024/04/04 14:41:04;;;;;;;23.00;5.07;;;17.10;7.80;;;;;;6204135;28;20046;-90
2024/04/04 14:44:06;;;;;;;26.08;4.93;;;17.60;1.00;;;;;;6226645;28;20053;-92
2024/04/04 14:47:06;;;;;;;29.15;5.45;;;17.60;1.00;;;;;;6214570;28;20060;-93
2024/04/04 14:50:07;;;;;;;23.30;4.88;;;17.20;1.00;;;;;;6208851;28;20089;-91
2024/04/04 14:53:08;;;;;;;25.00;4.78;;;17.50;1.00;;;;;;6206291;28;20058;-92
2024/04/04 14:56:09;;;;;;;23.25;5.10;;;18.00;1.00;;;;;;6215662;28;20054;-91
2024/04/04 14:59:10;;;;;;;23.50;5.05;;;18.10;1.00;;;;;;6203112;28;20053;-92
2024/04/04 15:02:11;;;;;;;21.85;4.68;;;17.90;1.00;;;;;;6213408;28;20092;-92
2024/04/04 15:05:11;;;;;;;21.70;4.93;;;17.70;1.00;;;;;;6213039;28;20513;-90
2024/04/04 15:08:13;;;;;;;22.95;4.70;;;17.80;1.00;;;;;;6228507;28;20061;-90
2024/04/04 15:11:16;;;;;;;22.08;4.50;;;17.90;1.00;;;;;;6229278;28;20054;-89
2024/04/04 15:14:17;;;;;;;23.02;4.78;;;18.00;1.00;;;;;;6208128;28;20417;-90
2024/04/04 15:17:18;;;;;;;22.40;4.95;;;17.80;1.00;;;;;;6235599;28;20053;-89
2024/04/04 15:20:19;;;;;;;22.92;4.65;;;17.60;1.00;;;;;;6234133;28;20064;-91
2024/04/04 15:23:20;;;;;;;21.35;4.18;;;17.30;1.00;;;;;;6215642;28;20513;-90
2024/04/04 15:26:21;;;;;;;19.48;3.95;;;17.30;1.00;;;;;;6214698;28;20061;-89
2024/04/04 15:29:24;;;;;;;20.98;4.10;;;17.10;1.00;;;;;;6221932;28;20061;-91
2024/04/04 15:32:25;;;;;;;18.52;4.05;;;17.00;1.00;;;;;;6220742;28;20046;-91
2024/04/04 15:35:26;;;;;;;24.42;4.32;;;16.70;1.00;;;;;;6223566;28;20056;-91
2024/04/04 15:38:27;;;;;;;19.60;4.20;;;16.80;1.00;;;;;;6230759;28;20055;-92
2024/04/04 15:41:27;;;;;;;15.90;4.25;;;16.80;1.00;;;;;;6221727;28;20046;-90
2024/04/04 15:44:28;;;;;;;24.48;4.15;;;16.70;1.00;;;;;;6216794;28;20065;-91
2024/04/04 15:47:29;;;;;;;20.00;4.20;;;16.60;1.00;;;;;;6231496;28;20058;-91